KCCA/CCA METAR and TAF weather

Enter ICAO airport designator
Station Type Date Time Source
KCCA METAR 2021/05/16 00:35 UTC NOAA

KCCA 160035Z AUTO 00000KT 9SM OVC060 22/17 A3006 RMK AO2


Station Type Date Time Source
KCCA Decoded METAR 2021/05/16 00:35 UTC NOAA

Station name not available
May 15, 2021 - 08:35 PM EDT / 2021.05.16 0035 UTC
Wind: Calm:0
Visibility: 9 mile(s):0
Sky conditions: overcast
Temperature: 71 F (22 C)
Dew Point: 62 F (17 C)
Relative Humidity: 73%
Pressure (altimeter): 30.06 in. Hg (1017 hPa)
ob: KCCA 160035Z AUTO 00000KT 9SM OVC060 22/17 A3006 RMK AO2
cycle: 0

Station Type Date Time Source
KCCA TAF UTC NOAA

Error!

Example: see airport list